Chrisanthi — SX7108 — position and weather

sailwx.info

Track history (hours):
 
Tides and Currents Weather Stations Pressure Air Temp Water Temp Dewpoint Dewpoint Depression Visibility Wind Speed Wind Dir Waves Ship Positions

Chrisanthi

Last reported at 2015-Jan-30 07:33 UTC. Time now 2015-Jan-30 07:54 UTC.
Position N 36°23' E 025°26'.

Length 56 m; draft 3.9 m.

Type: Tanker. MMSI: 237009100.

Date/timePositionNaut miles runAvg speedWind from/ knotsBaromVisibWave heightAir tempDewpointWater temp
2015-Jan-30 07:33N 36°23' E 025°26'0 0.0
2015-Jan-30 06:32N 36°23' E 025°26'6 5.4
2015-Jan-30 05:22N 36°30' E 025°25'810.1
2015-Jan-30 04:33N 36°31' E 025°35'1010.0
2015-Jan-30 03:33N 36°34' E 025°47'57 9.5
2015-Jan-29 21:33N 36°55' E 026°53'54 1.4
2015-Jan-28 07:21N 37°11' E 025°48'1110.1
2015-Jan-28 06:13N 37°13' E 025°34'710.2
2015-Jan-28 05:33N 37°11' E 025°26'6 5.6
2015-Jan-28 04:33N 37°06' E 025°22'0 0.0
2015-Jan-28 03:33N 37°06' E 025°22'0 0.0
2015-Jan-28 02:33N 37°06' E 025°22'0 0.0
2015-Jan-28 01:33N 37°06' E 025°22'2 2.0
2015-Jan-28 00:33N 37°08' E 025°21'1010.2
2015-Jan-27 23:33N 37°17' E 025°15'10 9.8
2015-Jan-27 22:33N 37°26' E 025°11'6 6.2
2015-Jan-27 21:33N 37°32' E 025°09'0 0.0
2015-Jan-27 20:33N 37°32' E 025°09'1 1.2
2015-Jan-27 19:33N 37°32' E 025°08'1310.0
2015-Jan-27 18:15N 37°32' E 024°51'37 9.8
2015-Jan-27 14:30N 37°34' E 024°05'19 9.8
2015-Jan-27 12:33N 37°40' E 023°42'1010.1
2015-Jan-27 11:33N 37°49' E 023°36'10 9.9
2015-Jan-27 10:33N 37°51' E 023°24'2 0.1
2015-Jan-26 02:33N 37°52' E 023°22'10 9.9
2015-Jan-26 01:33N 37°50' E 023°34'8 8.2
2015-Jan-26 00:33N 37°45' E 023°43'54 9.0
2015-Jan-25 18:33N 37°32' E 024°49'10 9.8
2015-Jan-25 17:33N 37°32' E 025°01'7 6.7
2015-Jan-25 16:33N 37°32' E 025°09'7 6.8
2015-Jan-25 15:33N 37°29' E 025°17'2 2.3
2015-Jan-25 14:33N 37°28' E 025°19'0 0.0
2015-Jan-25 13:33N 37°28' E 025°19'0 0.4
2015-Jan-25 12:33N 37°28' E 025°19'0 0.3
2015-Jan-25 11:33N 37°28' E 025°19'8 8.3
2015-Jan-25 10:33N 37°27' E 025°08'10 8.3
2015-Jan-25 09:23N 37°26' E 024°56'0 0.0
2015-Jan-25 08:32N 37°26' E 024°56'0 0.0
2015-Jan-25 07:31N 37°26' E 024°56'0 0.0
2015-Jan-25 06:26N 37°26' E 024°56'1 0.9
2015-Jan-25 05:28N 37°26' E 024°57'9 9.9
2015-Jan-25 04:33N 37°19' E 025°04'1010.1
2015-Jan-25 03:33N 37°13' E 025°14'10 9.5
2015-Jan-25 02:33N 37°04' E 025°18'16 8.0
2015-Jan-25 00:33N 36°56' E 025°35'2 0.3
2015-Jan-24 17:33N 36°56' E 025°38'10 9.7
2015-Jan-24 16:33N 37°05' E 025°37'9 9.0
2015-Jan-24 15:33N 37°13' E 025°32'1110.6
2015-Jan-24 14:33N 37°11' E 025°19'10 8.9
2015-Jan-24 13:24N 37°05' E 025°08'1 0.2
2015-Jan-24 06:31N 37°06' E 025°08'9 9.2
2015-Jan-24 05:33N 37°10' E 025°18'5 5.4
2015-Jan-24 04:33N 37°06' E 025°22'0 0.0
2015-Jan-24 03:33N 37°06' E 025°22'0 0.0
2015-Jan-24 02:33N 37°06' E 025°22'0 0.0
2015-Jan-24 01:33N 37°06' E 025°22'0 0.0
2015-Jan-24 00:33N 37°06' E 025°22'0 0.0
2015-Jan-23 23:33N 37°06' E 025°22'0 0.0
2015-Jan-23 22:33N 37°06' E 025°22'0 0.0
2015-Jan-23 21:33N 37°06' E 025°22'0 0.0
2015-Jan-23 20:33N 37°06' E 025°22'1 0.6
2015-Jan-23 19:33N 37°06' E 025°22'0 0.0
2015-Jan-23 18:33N 37°06' E 025°22'0 0.0
2015-Jan-23 17:33N 37°06' E 025°22'0 0.0
2015-Jan-23 16:33N 37°06' E 025°22'0 0.0
2015-Jan-23 15:33N 37°06' E 025°22'0 0.0
2015-Jan-23 14:33N 37°06' E 025°22'1 0.9
2015-Jan-23 13:33N 37°06' E 025°21'15 6.9
2015-Jan-23 11:21N 36°56' E 025°35'3 3.7
2015-Jan-23 10:29N 36°55' E 025°31'24 1.8
2015-Jan-22 21:28N 36°33' E 025°19'1010.5
2015-Jan-22 20:33N 36°24' E 025°25'1 1.0
2015-Jan-22 19:32N 36°23' E 025°26'0 0.2
2015-Jan-22 18:32N 36°23' E 025°26'1 1.3
2015-Jan-22 17:32N 36°24' E 025°25'3 3.3
2015-Jan-22 16:33N 36°27' E 025°22'7 7.5
2015-Jan-22 15:33N 36°29' E 025°31'1010.4
2015-Jan-22 14:33N 36°32' E 025°44'1010.2
2015-Jan-22 13:33N 36°34' E 025°56'  
Track history (hours):
 
Tides and Currents Weather Stations Pressure Air Temp Water Temp Dewpoint Dewpoint Depression Visibility Wind Speed Wind Dir Waves Ship Positions

Chrisanthi

Last reported at 2015-Jan-30 07:33 UTC. Time now 2015-Jan-30 07:54 UTC.
Position N 36°23' E 025°26'.

Length 56 m; draft 3.9 m.

Type: Tanker. MMSI: 237009100.

Date/timePositionNaut miles runAvg speedWind from/ knotsBaromVisibWave heightAir tempDewpointWater temp
2015-Jan-30 07:33N 36°23' E 025°26'0 0.0
2015-Jan-30 06:32N 36°23' E 025°26'6 5.4
2015-Jan-30 05:22N 36°30' E 025°25'810.1
2015-Jan-30 04:33N 36°31' E 025°35'1010.0
2015-Jan-30 03:33N 36°34' E 025°47'57 9.5
2015-Jan-29 21:33N 36°55' E 026°53'54 1.4
2015-Jan-28 07:21N 37°11' E 025°48'1110.1
2015-Jan-28 06:13N 37°13' E 025°34'710.2
2015-Jan-28 05:33N 37°11' E 025°26'6 5.6
2015-Jan-28 04:33N 37°06' E 025°22'0 0.0
2015-Jan-28 03:33N 37°06' E 025°22'0 0.0
2015-Jan-28 02:33N 37°06' E 025°22'0 0.0
2015-Jan-28 01:33N 37°06' E 025°22'2 2.0
2015-Jan-28 00:33N 37°08' E 025°21'1010.2
2015-Jan-27 23:33N 37°17' E 025°15'10 9.8
2015-Jan-27 22:33N 37°26' E 025°11'6 6.2
2015-Jan-27 21:33N 37°32' E 025°09'0 0.0
2015-Jan-27 20:33N 37°32' E 025°09'1 1.2
2015-Jan-27 19:33N 37°32' E 025°08'1310.0
2015-Jan-27 18:15N 37°32' E 024°51'37 9.8
2015-Jan-27 14:30N 37°34' E 024°05'19 9.8
2015-Jan-27 12:33N 37°40' E 023°42'1010.1
2015-Jan-27 11:33N 37°49' E 023°36'10 9.9
2015-Jan-27 10:33N 37°51' E 023°24'2 0.1
2015-Jan-26 02:33N 37°52' E 023°22'10 9.9
2015-Jan-26 01:33N 37°50' E 023°34'8 8.2
2015-Jan-26 00:33N 37°45' E 023°43'54 9.0
2015-Jan-25 18:33N 37°32' E 024°49'10 9.8
2015-Jan-25 17:33N 37°32' E 025°01'7 6.7
2015-Jan-25 16:33N 37°32' E 025°09'7 6.8
2015-Jan-25 15:33N 37°29' E 025°17'2 2.3
2015-Jan-25 14:33N 37°28' E 025°19'0 0.0
2015-Jan-25 13:33N 37°28' E 025°19'0 0.4
2015-Jan-25 12:33N 37°28' E 025°19'0 0.3
2015-Jan-25 11:33N 37°28' E 025°19'8 8.3
2015-Jan-25 10:33N 37°27' E 025°08'10 8.3
2015-Jan-25 09:23N 37°26' E 024°56'0 0.0
2015-Jan-25 08:32N 37°26' E 024°56'0 0.0
2015-Jan-25 07:31N 37°26' E 024°56'0 0.0
2015-Jan-25 06:26N 37°26' E 024°56'1 0.9
2015-Jan-25 05:28N 37°26' E 024°57'9 9.9
2015-Jan-25 04:33N 37°19' E 025°04'1010.1
2015-Jan-25 03:33N 37°13' E 025°14'10 9.5
2015-Jan-25 02:33N 37°04' E 025°18'16 8.0
2015-Jan-25 00:33N 36°56' E 025°35'2 0.3
2015-Jan-24 17:33N 36°56' E 025°38'10 9.7
2015-Jan-24 16:33N 37°05' E 025°37'9 9.0
2015-Jan-24 15:33N 37°13' E 025°32'1110.6
2015-Jan-24 14:33N 37°11' E 025°19'10 8.9
2015-Jan-24 13:24N 37°05' E 025°08'1 0.2
2015-Jan-24 06:31N 37°06' E 025°08'9 9.2
2015-Jan-24 05:33N 37°10' E 025°18'5 5.4
2015-Jan-24 04:33N 37°06' E 025°22'0 0.0
2015-Jan-24 03:33N 37°06' E 025°22'0 0.0
2015-Jan-24 02:33N 37°06' E 025°22'0 0.0
2015-Jan-24 01:33N 37°06' E 025°22'0 0.0
2015-Jan-24 00:33N 37°06' E 025°22'0 0.0
2015-Jan-23 23:33N 37°06' E 025°22'0 0.0
2015-Jan-23 22:33N 37°06' E 025°22'0 0.0
2015-Jan-23 21:33N 37°06' E 025°22'0 0.0
2015-Jan-23 20:33N 37°06' E 025°22'1 0.6
2015-Jan-23 19:33N 37°06' E 025°22'0 0.0
2015-Jan-23 18:33N 37°06' E 025°22'0 0.0
2015-Jan-23 17:33N 37°06' E 025°22'0 0.0
2015-Jan-23 16:33N 37°06' E 025°22'0 0.0
2015-Jan-23 15:33N 37°06' E 025°22'0 0.0
2015-Jan-23 14:33N 37°06' E 025°22'1 0.9
2015-Jan-23 13:33N 37°06' E 025°21'15 6.9
2015-Jan-23 11:21N 36°56' E 025°35'3 3.7
2015-Jan-23 10:29N 36°55' E 025°31'24 1.8
2015-Jan-22 21:28N 36°33' E 025°19'1010.5
2015-Jan-22 20:33N 36°24' E 025°25'1 1.0
2015-Jan-22 19:32N 36°23' E 025°26'0 0.2
2015-Jan-22 18:32N 36°23' E 025°26'1 1.3
2015-Jan-22 17:32N 36°24' E 025°25'3 3.3
2015-Jan-22 16:33N 36°27' E 025°22'7 7.5
2015-Jan-22 15:33N 36°29' E 025°31'1010.4
2015-Jan-22 14:33N 36°32' E 025°44'1010.2
2015-Jan-22 13:33N 36°34' E 025°56'  

Dump ship's entire track history